sensor_id;sensor_type;location;lat;lon;timestamp;temperature;humidity
41060;DHT22;26811;53.160;8.202;2022-08-01T00:04:48;18.20;99.90
41060;DHT22;26811;53.160;8.202;2022-08-01T00:09:48;18.20;99.90
41060;DHT22;26811;53.160;8.202;2022-08-01T00:14:49;18.30;99.90
41060;DHT22;26811;53.160;8.202;2022-08-01T00:19:49;18.20;99.90
41060;DHT22;26811;53.160;8.202;2022-08-01T00:24:50;18.20;99.90
41060;DHT22;26811;53.160;8.202;2022-08-01T00:29:51;18.20;99.90
41060;DHT22;26811;53.160;8.202;2022-08-01T00:34:51;18.20;99.90
41060;DHT22;26811;53.160;8.202;2022-08-01T00:39:52;18.20;99.90
41060;DHT22;26811;53.160;8.202;2022-08-01T00:44:52;18.20;99.90
41060;DHT22;26811;53.160;8.202;2022-08-01T00:49:53;18.20;99.90
41060;DHT22;26811;53.160;8.202;2022-08-01T00:54:53;18.20;99.90
41060;DHT22;26811;53.160;8.202;2022-08-01T00:59:54;18.20;99.90
41060;DHT22;26811;53.160;8.202;2022-08-01T01:04:55;18.20;99.90
41060;DHT22;26811;53.160;8.202;2022-08-01T01:20:51;18.20;99.90
41060;DHT22;26811;53.160;8.202;2022-08-01T01:31:13;18.10;99.90
41060;DHT22;26811;53.160;8.202;2022-08-01T01:36:16;18.10;99.90
41060;DHT22;26811;53.160;8.202;2022-08-01T01:41:18;18.10;99.90
41060;DHT22;26811;53.160;8.202;2022-08-01T01:46:23;18.00;99.90
41060;DHT22;26811;53.160;8.202;2022-08-01T01:51:26;18.00;99.90
41060;DHT22;26811;53.160;8.202;2022-08-01T01:56:29;18.00;99.90
41060;DHT22;26811;53.160;8.202;2022-08-01T02:01:31;18.00;99.90
41060;DHT22;26811;53.160;8.202;2022-08-01T02:06:33;18.00;99.90
41060;DHT22;26811;53.160;8.202;2022-08-01T02:11:36;18.00;99.90
41060;DHT22;26811;53.160;8.202;2022-08-01T02:16:40;17.90;99.90
41060;DHT22;26811;53.160;8.202;2022-08-01T02:26:50;17.90;99.90
41060;DHT22;26811;53.160;8.202;2022-08-01T02:31:54;17.90;99.90
41060;DHT22;26811;53.160;8.202;2022-08-01T02:36:56;17.80;99.90
41060;DHT22;26811;53.160;8.202;2022-08-01T02:42:01;17.70;99.90
41060;DHT22;26811;53.160;8.202;2022-08-01T02:47:03;17.70;99.90
41060;DHT22;26811;53.160;8.202;2022-08-01T02:52:10;17.60;99.90
41060;DHT22;26811;53.160;8.202;2022-08-01T02:57:12;17.60;99.90
41060;DHT22;26811;53.160;8.202;2022-08-01T03:02:14;17.50;99.90
41060;DHT22;26811;53.160;8.202;2022-08-01T03:07:16;17.50;99.90
41060;DHT22;26811;53.160;8.202;2022-08-01T03:12:19;17.50;99.90
41060;DHT22;26811;53.160;8.202;2022-08-01T03:17:21;17.40;99.90
41060;DHT22;26811;53.160;8.202;2022-08-01T03:22:24;17.40;99.90
41060;DHT22;26811;53.160;8.202;2022-08-01T03:27:26;17.40;99.90
41060;DHT22;26811;53.160;8.202;2022-08-01T03:32:27;17.40;99.90
41060;DHT22;26811;53.160;8.202;2022-08-01T03:37:37;17.40;99.90
41060;DHT22;26811;53.160;8.202;2022-08-01T03:42:48;17.30;99.90
41060;DHT22;26811;53.160;8.202;2022-08-01T03:47:52;17.40;99.90
41060;DHT22;26811;53.160;8.202;2022-08-01T03:52:57;17.40;99.90
41060;DHT22;26811;53.160;8.202;2022-08-01T03:57:59;17.30;99.90
41060;DHT22;26811;53.160;8.202;2022-08-01T04:03:00;17.30;99.90
41060;DHT22;26811;53.160;8.202;2022-08-01T04:08:01;17.20;99.90
41060;DHT22;26811;53.160;8.202;2022-08-01T04:13:03;17.20;99.90
41060;DHT22;26811;53.160;8.202;2022-08-01T04:18:03;17.20;99.90
41060;DHT22;26811;53.160;8.202;2022-08-01T04:23:04;17.10;99.90
41060;DHT22;26811;53.160;8.202;2022-08-01T04:28:05;17.10;99.90
41060;DHT22;26811;53.160;8.202;2022-08-01T04:33:08;17.10;99.90
41060;DHT22;26811;53.160;8.202;2022-08-01T04:38:10;17.10;99.90
41060;DHT22;26811;53.160;8.202;2022-08-01T04:43:13;17.00;99.90
41060;DHT22;26811;53.160;8.202;2022-08-01T04:48:17;17.00;99.90
41060;DHT22;26811;53.160;8.202;2022-08-01T04:53:19;16.90;99.90
41060;DHT22;26811;53.160;8.202;2022-08-01T04:58:22;17.00;99.90
41060;DHT22;26811;53.160;8.202;2022-08-01T05:03:22;16.90;99.90
41060;DHT22;26811;53.160;8.202;2022-08-01T05:08:23;16.90;99.90
41060;DHT22;26811;53.160;8.202;2022-08-01T05:13:24;16.90;99.90
41060;DHT22;26811;53.160;8.202;2022-08-01T05:18:24;16.90;99.90
41060;DHT22;26811;53.160;8.202;2022-08-01T05:23:25;16.80;99.90
41060;DHT22;26811;53.160;8.202;2022-08-01T05:28:25;16.70;99.90
41060;DHT22;26811;53.160;8.202;2022-08-01T05:33:26;16.50;99.90
41060;DHT22;26811;53.160;8.202;2022-08-01T05:38:26;16.40;99.90
41060;DHT22;26811;53.160;8.202;2022-08-01T05:43:27;16.30;99.90
41060;DHT22;26811;53.160;8.202;2022-08-01T05:48:27;16.40;99.90
41060;DHT22;26811;53.160;8.202;2022-08-01T05:53:28;16.40;99.90
41060;DHT22;26811;53.160;8.202;2022-08-01T05:58:28;16.40;99.90
41060;DHT22;26811;53.160;8.202;2022-08-01T06:03:29;16.40;99.90
41060;DHT22;26811;53.160;8.202;2022-08-01T06:08:31;16.30;99.90
41060;DHT22;26811;53.160;8.202;2022-08-01T06:13:32;16.30;99.90
41060;DHT22;26811;53.160;8.202;2022-08-01T06:18:32;16.40;99.90
41060;DHT22;26811;53.160;8.202;2022-08-01T06:23:33;16.60;99.90
41060;DHT22;26811;53.160;8.202;2022-08-01T06:28:33;16.70;99.90
41060;DHT22;26811;53.160;8.202;2022-08-01T06:33:34;17.00;99.90
41060;DHT22;26811;53.160;8.202;2022-08-01T06:38:35;17.40;99.90
41060;DHT22;26811;53.160;8.202;2022-08-01T06:43:35;17.60;99.90
41060;DHT22;26811;53.160;8.202;2022-08-01T06:48:36;17.50;99.90
41060;DHT22;26811;53.160;8.202;2022-08-01T06:53:39;17.90;99.90
41060;DHT22;26811;53.160;8.202;2022-08-01T06:58:40;19.00;99.90
41060;DHT22;26811;53.160;8.202;2022-08-01T07:03:40;20.40;99.90
41060;DHT22;26811;53.160;8.202;2022-08-01T07:08:41;21.30;99.90
41060;DHT22;26811;53.160;8.202;2022-08-01T07:13:41;21.60;99.90
41060;DHT22;26811;53.160;8.202;2022-08-01T07:18:42;23.00;99.90
41060;DHT22;26811;53.160;8.202;2022-08-01T07:23:43;24.70;99.90
41060;DHT22;26811;53.160;8.202;2022-08-01T07:28:43;26.10;99.90
41060;DHT22;26811;53.160;8.202;2022-08-01T07:33:44;27.60;99.50
41060;DHT22;26811;53.160;8.202;2022-08-01T07:38:45;27.50;98.40
41060;DHT22;26811;53.160;8.202;2022-08-01T07:43:45;27.30;97.80
41060;DHT22;26811;53.160;8.202;2022-08-01T07:48:47;26.20;99.90
41060;DHT22;26811;53.160;8.202;2022-08-01T07:53:48;25.60;98.10
41060;DHT22;26811;53.160;8.202;2022-08-01T07:58:48;24.30;99.90
41060;DHT22;26811;53.160;8.202;2022-08-01T08:03:49;23.00;99.90
41060;DHT22;26811;53.160;8.202;2022-08-01T08:08:49;22.70;99.90
41060;DHT22;26811;53.160;8.202;2022-08-01T08:13:50;23.70;99.90
41060;DHT22;26811;53.160;8.202;2022-08-01T08:18:50;23.90;99.90
41060;DHT22;26811;53.160;8.202;2022-08-01T08:23:51;25.00;99.90
41060;DHT22;26811;53.160;8.202;2022-08-01T08:29:10;24.90;99.90
41060;DHT22;26811;53.160;8.202;2022-08-01T08:34:11;24.20;99.90
41060;DHT22;26811;53.160;8.202;2022-08-01T08:39:11;24.50;99.90
41060;DHT22;26811;53.160;8.202;2022-08-01T08:44:12;25.70;99.20
41060;DHT22;26811;53.160;8.202;2022-08-01T08:49:20;26.40;98.60
41060;DHT22;26811;53.160;8.202;2022-08-01T08:54:22;26.10;99.20
41060;DHT22;26811;53.160;8.202;2022-08-01T08:59:24;25.70;98.70
41060;DHT22;26811;53.160;8.202;2022-08-01T09:04:26;25.00;97.60
41060;DHT22;26811;53.160;8.202;2022-08-01T09:09:26;24.80;99.20
41060;DHT22;26811;53.160;8.202;2022-08-01T09:14:27;24.70;98.10
41060;DHT22;26811;53.160;8.202;2022-08-01T09:24:39;24.30;99.90
41060;DHT22;26811;53.160;8.202;2022-08-01T09:29:40;24.60;99.90
41060;DHT22;26811;53.160;8.202;2022-08-01T09:34:41;24.30;99.70
41060;DHT22;26811;53.160;8.202;2022-08-01T09:39:41;24.10;99.50
41060;DHT22;26811;53.160;8.202;2022-08-01T09:44:44;24.00;99.90
41060;DHT22;26811;53.160;8.202;2022-08-01T09:49:45;23.90;99.90
41060;DHT22;26811;53.160;8.202;2022-08-01T09:55:00;23.70;99.90
41060;DHT22;26811;53.160;8.202;2022-08-01T10:00:03;23.30;99.90
41060;DHT22;26811;53.160;8.202;2022-08-01T10:05:06;23.50;99.90
41060;DHT22;26811;53.160;8.202;2022-08-01T10:10:14;23.30;99.90
41060;DHT22;26811;53.160;8.202;2022-08-01T10:15:16;23.40;99.90
41060;DHT22;26811;53.160;8.202;2022-08-01T10:20:20;24.10;99.30
41060;DHT22;26811;53.160;8.202;2022-08-01T10:25:21;24.30;98.60
41060;DHT22;26811;53.160;8.202;2022-08-01T10:30:22;24.20;99.10
41060;DHT22;26811;53.160;8.202;2022-08-01T10:35:22;24.00;98.90
41060;DHT22;26811;53.160;8.202;2022-08-01T10:40:23;23.80;98.40
41060;DHT22;26811;53.160;8.202;2022-08-01T10:45:25;23.90;98.80
41060;DHT22;26811;53.160;8.202;2022-08-01T11:06:22;23.60;99.20
41060;DHT22;26811;53.160;8.202;2022-08-01T11:11:24;23.60;98.90
41060;DHT22;26811;53.160;8.202;2022-08-01T11:16:32;24.00;98.30
41060;DHT22;26811;53.160;8.202;2022-08-01T11:27:18;23.80;98.40
41060;DHT22;26811;53.160;8.202;2022-08-01T11:32:24;23.70;97.80
41060;DHT22;26811;53.160;8.202;2022-08-01T11:37:26;23.70;97.10
41060;DHT22;26811;53.160;8.202;2022-08-01T11:42:27;24.10;97.80
41060;DHT22;26811;53.160;8.202;2022-08-01T11:47:50;23.90;97.20
41060;DHT22;26811;53.160;8.202;2022-08-01T11:52:57;23.60;98.20
41060;DHT22;26811;53.160;8.202;2022-08-01T11:58:01;23.60;98.30
41060;DHT22;26811;53.160;8.202;2022-08-01T12:03:05;23.90;98.60
41060;DHT22;26811;53.160;8.202;2022-08-01T12:08:05;24.00;96.90
41060;DHT22;26811;53.160;8.202;2022-08-01T12:13:06;24.10;97.50
41060;DHT22;26811;53.160;8.202;2022-08-01T12:18:07;24.50;98.40
41060;DHT22;26811;53.160;8.202;2022-08-01T12:23:09;24.70;96.80
41060;DHT22;26811;53.160;8.202;2022-08-01T12:28:11;24.40;96.40
41060;DHT22;26811;53.160;8.202;2022-08-01T12:33:18;24.30;96.70
41060;DHT22;26811;53.160;8.202;2022-08-01T12:38:22;24.20;96.10
41060;DHT22;26811;53.160;8.202;2022-08-01T12:43:25;23.70;97.20
41060;DHT22;26811;53.160;8.202;2022-08-01T12:48:26;23.50;96.50
41060;DHT22;26811;53.160;8.202;2022-08-01T12:53:27;23.70;97.30
41060;DHT22;26811;53.160;8.202;2022-08-01T12:58:32;23.80;97.30
41060;DHT22;26811;53.160;8.202;2022-08-01T13:03:33;23.70;97.00
41060;DHT22;26811;53.160;8.202;2022-08-01T13:08:34;24.20;97.00
41060;DHT22;26811;53.160;8.202;2022-08-01T13:13:40;24.20;96.40
41060;DHT22;26811;53.160;8.202;2022-08-01T13:18:48;23.70;96.50
41060;DHT22;26811;53.160;8.202;2022-08-01T13:29:06;23.80;97.70
41060;DHT22;26811;53.160;8.202;2022-08-01T13:34:08;24.10;96.80
41060;DHT22;26811;53.160;8.202;2022-08-01T13:39:09;24.10;95.30
41060;DHT22;26811;53.160;8.202;2022-08-01T13:44:29;23.80;96.20
41060;DHT22;26811;53.160;8.202;2022-08-01T13:49:29;23.70;96.80
41060;DHT22;26811;53.160;8.202;2022-08-01T13:54:30;23.70;97.20
41060;DHT22;26811;53.160;8.202;2022-08-01T13:59:31;23.70;96.10
41060;DHT22;26811;53.160;8.202;2022-08-01T14:04:32;23.50;96.50
41060;DHT22;26811;53.160;8.202;2022-08-01T14:09:32;23.40;96.60
41060;DHT22;26811;53.160;8.202;2022-08-01T14:14:33;23.50;95.90
41060;DHT22;26811;53.160;8.202;2022-08-01T14:19:34;23.60;96.40
41060;DHT22;26811;53.160;8.202;2022-08-01T14:24:34;23.80;96.00
41060;DHT22;26811;53.160;8.202;2022-08-01T14:29:35;23.60;96.10
41060;DHT22;26811;53.160;8.202;2022-08-01T14:34:35;23.60;96.00
41060;DHT22;26811;53.160;8.202;2022-08-01T14:39:36;23.80;95.20
41060;DHT22;26811;53.160;8.202;2022-08-01T14:44:37;24.00;95.70
41060;DHT22;26811;53.160;8.202;2022-08-01T14:49:38;24.10;95.50
41060;DHT22;26811;53.160;8.202;2022-08-01T14:54:38;24.00;95.50
41060;DHT22;26811;53.160;8.202;2022-08-01T14:59:39;23.60;95.60
41060;DHT22;26811;53.160;8.202;2022-08-01T15:04:39;23.50;95.40
41060;DHT22;26811;53.160;8.202;2022-08-01T15:09:40;23.40;95.60
41060;DHT22;26811;53.160;8.202;2022-08-01T15:14:41;23.50;95.90
41060;DHT22;26811;53.160;8.202;2022-08-01T15:19:55;23.20;95.50
41060;DHT22;26811;53.160;8.202;2022-08-01T15:24:58;23.10;96.40
41060;DHT22;26811;53.160;8.202;2022-08-01T15:29:58;22.80;95.70
41060;DHT22;26811;53.160;8.202;2022-08-01T15:35:08;22.60;96.60
41060;DHT22;26811;53.160;8.202;2022-08-01T15:40:15;22.40;96.10
41060;DHT22;26811;53.160;8.202;2022-08-01T15:45:16;22.50;96.90
41060;DHT22;26811;53.160;8.202;2022-08-01T15:50:22;22.40;96.00
41060;DHT22;26811;53.160;8.202;2022-08-01T15:55:23;22.20;96.70
41060;DHT22;26811;53.160;8.202;2022-08-01T16:00:24;22.30;96.40
41060;DHT22;26811;53.160;8.202;2022-08-01T16:05:25;22.40;96.10
41060;DHT22;26811;53.160;8.202;2022-08-01T16:10:26;22.60;95.90
41060;DHT22;26811;53.160;8.202;2022-08-01T16:15:28;22.80;95.90
41060;DHT22;26811;53.160;8.202;2022-08-01T16:20:28;22.80;95.20
41060;DHT22;26811;53.160;8.202;2022-08-01T16:25:29;22.60;95.40
41060;DHT22;26811;53.160;8.202;2022-08-01T16:30:30;22.20;95.30
41060;DHT22;26811;53.160;8.202;2022-08-01T16:35:30;21.90;95.90
41060;DHT22;26811;53.160;8.202;2022-08-01T16:40:34;21.60;96.30
41060;DHT22;26811;53.160;8.202;2022-08-01T16:45:34;21.60;96.90
41060;DHT22;26811;53.160;8.202;2022-08-01T16:50:35;21.30;96.80
41060;DHT22;26811;53.160;8.202;2022-08-01T16:55:36;20.70;97.80
41060;DHT22;26811;53.160;8.202;2022-08-01T17:00:37;20.30;98.70
41060;DHT22;26811;53.160;8.202;2022-08-01T17:05:42;20.00;99.20
41060;DHT22;26811;53.160;8.202;2022-08-01T17:10:43;19.80;99.20
41060;DHT22;26811;53.160;8.202;2022-08-01T17:15:43;19.70;99.60
41060;DHT22;26811;53.160;8.202;2022-08-01T17:20:46;19.70;99.90
41060;DHT22;26811;53.160;8.202;2022-08-01T17:25:49;19.60;99.90
41060;DHT22;26811;53.160;8.202;2022-08-01T17:30:50;19.40;99.70
41060;DHT22;26811;53.160;8.202;2022-08-01T17:35:50;19.30;99.90
41060;DHT22;26811;53.160;8.202;2022-08-01T17:40:51;19.10;99.90
41060;DHT22;26811;53.160;8.202;2022-08-01T17:45:51;18.90;99.90
41060;DHT22;26811;53.160;8.202;2022-08-01T17:50:53;18.70;99.90
41060;DHT22;26811;53.160;8.202;2022-08-01T17:55:54;18.60;99.90
41060;DHT22;26811;53.160;8.202;2022-08-01T18:00:57;18.40;99.90
41060;DHT22;26811;53.160;8.202;2022-08-01T18:05:58;18.30;99.90
41060;DHT22;26811;53.160;8.202;2022-08-01T18:10:59;18.20;99.90
41060;DHT22;26811;53.160;8.202;2022-08-01T18:16:00;18.10;99.90
41060;DHT22;26811;53.160;8.202;2022-08-01T18:21:01;18.00;99.90
41060;DHT22;26811;53.160;8.202;2022-08-01T18:26:03;17.90;99.90
41060;DHT22;26811;53.160;8.202;2022-08-01T18:31:07;17.80;99.90
41060;DHT22;26811;53.160;8.202;2022-08-01T18:36:08;17.70;99.90
41060;DHT22;26811;53.160;8.202;2022-08-01T18:41:08;17.70;99.90
41060;DHT22;26811;53.160;8.202;2022-08-01T18:46:12;17.60;99.90
41060;DHT22;26811;53.160;8.202;2022-08-01T18:51:12;17.50;99.90
41060;DHT22;26811;53.160;8.202;2022-08-01T18:56:13;17.30;99.90
41060;DHT22;26811;53.160;8.202;2022-08-01T19:01:14;17.20;99.90
41060;DHT22;26811;53.160;8.202;2022-08-01T19:06:14;17.10;99.90
41060;DHT22;26811;53.160;8.202;2022-08-01T19:11:15;17.00;99.90
41060;DHT22;26811;53.160;8.202;2022-08-01T19:16:16;16.80;99.90
41060;DHT22;26811;53.160;8.202;2022-08-01T19:21:17;16.70;99.90
41060;DHT22;26811;53.160;8.202;2022-08-01T19:26:22;16.50;99.90
41060;DHT22;26811;53.160;8.202;2022-08-01T19:31:28;16.30;99.90
41060;DHT22;26811;53.160;8.202;2022-08-01T19:36:30;16.20;99.90
41060;DHT22;26811;53.160;8.202;2022-08-01T19:41:30;16.00;99.90
41060;DHT22;26811;53.160;8.202;2022-08-01T19:46:32;15.80;99.90
41060;DHT22;26811;53.160;8.202;2022-08-01T19:51:37;15.60;99.90
41060;DHT22;26811;53.160;8.202;2022-08-01T19:56:42;15.50;99.90
41060;DHT22;26811;53.160;8.202;2022-08-01T20:01:45;15.40;99.90
41060;DHT22;26811;53.160;8.202;2022-08-01T20:06:46;15.20;99.90
41060;DHT22;26811;53.160;8.202;2022-08-01T20:11:49;15.10;99.90
41060;DHT22;26811;53.160;8.202;2022-08-01T20:16:52;15.00;99.90
41060;DHT22;26811;53.160;8.202;2022-08-01T20:21:59;14.80;99.90
41060;DHT22;26811;53.160;8.202;2022-08-01T20:27:01;14.70;99.90
41060;DHT22;26811;53.160;8.202;2022-08-01T20:32:05;14.60;99.90
41060;DHT22;26811;53.160;8.202;2022-08-01T20:37:07;14.50;99.90
41060;DHT22;26811;53.160;8.202;2022-08-01T20:42:09;14.40;99.90
41060;DHT22;26811;53.160;8.202;2022-08-01T20:47:10;14.30;99.90
41060;DHT22;26811;53.160;8.202;2022-08-01T20:52:11;14.20;99.90
41060;DHT22;26811;53.160;8.202;2022-08-01T20:57:19;14.10;99.90
41060;DHT22;26811;53.160;8.202;2022-08-01T21:02:35;14.10;99.90
41060;DHT22;26811;53.160;8.202;2022-08-01T21:07:50;14.00;99.90
41060;DHT22;26811;53.160;8.202;2022-08-01T21:13:03;13.80;99.90
41060;DHT22;26811;53.160;8.202;2022-08-01T21:23:42;13.70;99.90
41060;DHT22;26811;53.160;8.202;2022-08-01T21:28:47;13.60;99.90
41060;DHT22;26811;53.160;8.202;2022-08-01T21:33:48;13.50;99.90
41060;DHT22;26811;53.160;8.202;2022-08-01T21:38:50;13.50;99.90
41060;DHT22;26811;53.160;8.202;2022-08-01T21:43:59;13.40;99.90
41060;DHT22;26811;53.160;8.202;2022-08-01T21:49:00;13.30;99.90
41060;DHT22;26811;53.160;8.202;2022-08-01T21:54:08;13.20;99.90
41060;DHT22;26811;53.160;8.202;2022-08-01T22:09:43;13.00;99.90
41060;DHT22;26811;53.160;8.202;2022-08-01T22:14:47;13.00;99.90
41060;DHT22;26811;53.160;8.202;2022-08-01T22:19:49;13.00;99.90
41060;DHT22;26811;53.160;8.202;2022-08-01T22:24:52;12.90;99.90
41060;DHT22;26811;53.160;8.202;2022-08-01T22:29:58;12.90;99.90
41060;DHT22;26811;53.160;8.202;2022-08-01T22:35:00;12.90;99.90
41060;DHT22;26811;53.160;8.202;2022-08-01T22:40:07;12.80;99.90
41060;DHT22;26811;53.160;8.202;2022-08-01T22:50:31;12.70;99.90
41060;DHT22;26811;53.160;8.202;2022-08-01T22:55:33;12.70;99.90
41060;DHT22;26811;53.160;8.202;2022-08-01T23:00:36;12.70;99.90
41060;DHT22;26811;53.160;8.202;2022-08-01T23:05:43;12.70;99.90
41060;DHT22;26811;53.160;8.202;2022-08-01T23:10:45;12.70;99.90
41060;DHT22;26811;53.160;8.202;2022-08-01T23:15:46;12.70;99.90
41060;DHT22;26811;53.160;8.202;2022-08-01T23:20:49;12.60;99.90
41060;DHT22;26811;53.160;8.202;2022-08-01T23:25:51;12.60;99.90
41060;DHT22;26811;53.160;8.202;2022-08-01T23:30:53;12.50;99.90
41060;DHT22;26811;53.160;8.202;2022-08-01T23:35:54;12.50;99.90
41060;DHT22;26811;53.160;8.202;2022-08-01T23:40:54;12.40;99.90
41060;DHT22;26811;53.160;8.202;2022-08-01T23:45:55;12.40;99.90
41060;DHT22;26811;53.160;8.202;2022-08-01T23:50:55;12.40;99.90
41060;DHT22;26811;53.160;8.202;2022-08-01T23:55:56;12.30;99.90
